sensor_id;sensor_type;location;lat;lon;timestamp;temperature;humidity
33271;DHT22;53180;51.344;6.152;2023-06-14T00:00:04;17.50;61.90
33271;DHT22;53180;51.344;6.152;2023-06-14T00:02:34;17.40;62.20
33271;DHT22;53180;51.344;6.152;2023-06-14T00:05:05;17.40;62.30
33271;DHT22;53180;51.344;6.152;2023-06-14T00:07:34;17.20;62.20
33271;DHT22;53180;51.344;6.152;2023-06-14T00:10:04;17.20;62.60
33271;DHT22;53180;51.344;6.152;2023-06-14T00:12:33;17.20;63.40
33271;DHT22;53180;51.344;6.152;2023-06-14T00:15:02;17.10;63.60
33271;DHT22;53180;51.344;6.152;2023-06-14T00:17:31;17.00;63.80
33271;DHT22;53180;51.344;6.152;2023-06-14T00:20:04;17.00;63.90
33271;DHT22;53180;51.344;6.152;2023-06-14T00:22:33;16.90;64.00
33271;DHT22;53180;51.344;6.152;2023-06-14T00:25:04;16.80;64.20
33271;DHT22;53180;51.344;6.152;2023-06-14T00:27:49;16.70;64.20
33271;DHT22;53180;51.344;6.152;2023-06-14T00:30:18;16.60;64.30
33271;DHT22;53180;51.344;6.152;2023-06-14T00:32:47;16.60;64.70
33271;DHT22;53180;51.344;6.152;2023-06-14T00:35:18;16.60;65.00
33271;DHT22;53180;51.344;6.152;2023-06-14T00:37:46;16.70;64.60
33271;DHT22;53180;51.344;6.152;2023-06-14T00:40:14;16.80;63.80
33271;DHT22;53180;51.344;6.152;2023-06-14T00:42:43;16.70;63.30
33271;DHT22;53180;51.344;6.152;2023-06-14T00:45:11;16.60;63.10
33271;DHT22;53180;51.344;6.152;2023-06-14T00:47:41;16.60;63.40
33271;DHT22;53180;51.344;6.152;2023-06-14T00:50:10;16.60;64.10
33271;DHT22;53180;51.344;6.152;2023-06-14T00:52:41;16.70;63.70
33271;DHT22;53180;51.344;6.152;2023-06-14T00:55:09;16.70;63.90
33271;DHT22;53180;51.344;6.152;2023-06-14T00:57:38;16.50;63.60
33271;DHT22;53180;51.344;6.152;2023-06-14T01:00:08;16.40;63.30
33271;DHT22;53180;51.344;6.152;2023-06-14T01:02:37;16.30;64.50
33271;DHT22;53180;51.344;6.152;2023-06-14T01:05:08;16.40;64.40
33271;DHT22;53180;51.344;6.152;2023-06-14T01:07:55;16.30;64.40
33271;DHT22;53180;51.344;6.152;2023-06-14T01:10:45;16.30;64.20
33271;DHT22;53180;51.344;6.152;2023-06-14T01:13:23;16.20;63.60
33271;DHT22;53180;51.344;6.152;2023-06-14T01:15:55;16.20;64.30
33271;DHT22;53180;51.344;6.152;2023-06-14T01:18:24;16.10;64.10
33271;DHT22;53180;51.344;6.152;2023-06-14T01:20:52;16.00;64.40
33271;DHT22;53180;51.344;6.152;2023-06-14T01:23:24;15.90;65.10
33271;DHT22;53180;51.344;6.152;2023-06-14T01:26:00;15.80;66.30
33271;DHT22;53180;51.344;6.152;2023-06-14T01:28:31;15.80;66.00
33271;DHT22;53180;51.344;6.152;2023-06-14T01:31:02;15.90;65.80
33271;DHT22;53180;51.344;6.152;2023-06-14T01:33:33;15.90;66.10
33271;DHT22;53180;51.344;6.152;2023-06-14T01:36:02;15.80;66.50
33271;DHT22;53180;51.344;6.152;2023-06-14T01:38:34;15.70;66.00
33271;DHT22;53180;51.344;6.152;2023-06-14T01:41:03;15.70;66.10
33271;DHT22;53180;51.344;6.152;2023-06-14T01:43:33;15.70;66.50
33271;DHT22;53180;51.344;6.152;2023-06-14T01:46:03;15.70;66.30
33271;DHT22;53180;51.344;6.152;2023-06-14T01:48:32;15.70;65.70
33271;DHT22;53180;51.344;6.152;2023-06-14T01:51:00;15.60;65.90
33271;DHT22;53180;51.344;6.152;2023-06-14T01:53:29;15.60;66.20
33271;DHT22;53180;51.344;6.152;2023-06-14T01:55:59;15.60;66.10
33271;DHT22;53180;51.344;6.152;2023-06-14T01:58:28;15.60;65.60
33271;DHT22;53180;51.344;6.152;2023-06-14T02:00:56;15.60;65.80
33271;DHT22;53180;51.344;6.152;2023-06-14T02:03:25;15.50;65.70
33271;DHT22;53180;51.344;6.152;2023-06-14T02:05:54;15.50;65.90
33271;DHT22;53180;51.344;6.152;2023-06-14T02:08:22;15.60;66.30
33271;DHT22;53180;51.344;6.152;2023-06-14T02:10:51;15.60;66.20
33271;DHT22;53180;51.344;6.152;2023-06-14T02:13:21;15.70;65.80
33271;DHT22;53180;51.344;6.152;2023-06-14T02:15:50;15.70;65.70
33271;DHT22;53180;51.344;6.152;2023-06-14T02:18:22;15.70;65.30
33271;DHT22;53180;51.344;6.152;2023-06-14T02:20:50;15.80;64.80
33271;DHT22;53180;51.344;6.152;2023-06-14T02:23:19;15.80;64.70
33271;DHT22;53180;51.344;6.152;2023-06-14T02:25:47;15.80;64.80
33271;DHT22;53180;51.344;6.152;2023-06-14T02:28:16;15.90;64.80
33271;DHT22;53180;51.344;6.152;2023-06-14T02:30:46;15.80;64.70
33271;DHT22;53180;51.344;6.152;2023-06-14T02:33:14;15.80;65.20
33271;DHT22;53180;51.344;6.152;2023-06-14T02:35:44;15.80;65.10
33271;DHT22;53180;51.344;6.152;2023-06-14T02:38:13;15.80;65.40
33271;DHT22;53180;51.344;6.152;2023-06-14T02:40:41;15.80;65.20
33271;DHT22;53180;51.344;6.152;2023-06-14T02:43:10;15.80;64.60
33271;DHT22;53180;51.344;6.152;2023-06-14T02:45:38;15.80;64.70
33271;DHT22;53180;51.344;6.152;2023-06-14T02:48:08;15.80;64.90
33271;DHT22;53180;51.344;6.152;2023-06-14T02:50:38;15.80;64.80
33271;DHT22;53180;51.344;6.152;2023-06-14T02:53:06;15.80;65.10
33271;DHT22;53180;51.344;6.152;2023-06-14T02:55:35;15.80;65.30
33271;DHT22;53180;51.344;6.152;2023-06-14T02:58:06;15.80;65.30
33271;DHT22;53180;51.344;6.152;2023-06-14T03:00:35;15.80;65.10
33271;DHT22;53180;51.344;6.152;2023-06-14T03:03:05;15.80;65.20
33271;DHT22;53180;51.344;6.152;2023-06-14T03:05:41;15.80;64.70
33271;DHT22;53180;51.344;6.152;2023-06-14T03:08:12;15.70;64.70
33271;DHT22;53180;51.344;6.152;2023-06-14T03:10:43;15.50;64.60
33271;DHT22;53180;51.344;6.152;2023-06-14T03:13:12;15.30;65.60
33271;DHT22;53180;51.344;6.152;2023-06-14T03:15:40;15.20;66.00
33271;DHT22;53180;51.344;6.152;2023-06-14T03:18:09;15.10;66.30
33271;DHT22;53180;51.344;6.152;2023-06-14T03:20:40;15.10;66.80
33271;DHT22;53180;51.344;6.152;2023-06-14T03:23:09;15.00;67.00
33271;DHT22;53180;51.344;6.152;2023-06-14T03:25:38;14.90;66.60
33271;DHT22;53180;51.344;6.152;2023-06-14T03:28:08;14.80;66.90
33271;DHT22;53180;51.344;6.152;2023-06-14T03:30:37;14.70;67.30
33271;DHT22;53180;51.344;6.152;2023-06-14T03:33:05;14.60;67.70
33271;DHT22;53180;51.344;6.152;2023-06-14T03:35:34;14.50;67.90
33271;DHT22;53180;51.344;6.152;2023-06-14T03:38:03;14.50;68.30
33271;DHT22;53180;51.344;6.152;2023-06-14T03:40:32;14.50;68.70
33271;DHT22;53180;51.344;6.152;2023-06-14T03:43:00;14.50;68.70
33271;DHT22;53180;51.344;6.152;2023-06-14T03:45:28;14.60;68.90
33271;DHT22;53180;51.344;6.152;2023-06-14T03:47:57;14.60;68.90
33271;DHT22;53180;51.344;6.152;2023-06-14T03:50:27;14.50;69.00
33271;DHT22;53180;51.344;6.152;2023-06-14T03:52:56;14.60;68.90
33271;DHT22;53180;51.344;6.152;2023-06-14T03:55:25;14.70;69.30
33271;DHT22;53180;51.344;6.152;2023-06-14T03:57:57;14.70;69.50
33271;DHT22;53180;51.344;6.152;2023-06-14T04:00:25;14.70;69.90
33271;DHT22;53180;51.344;6.152;2023-06-14T04:02:54;14.80;69.80
33271;DHT22;53180;51.344;6.152;2023-06-14T04:05:22;14.80;70.10
33271;DHT22;53180;51.344;6.152;2023-06-14T04:07:53;14.90;69.60
33271;DHT22;53180;51.344;6.152;2023-06-14T04:10:24;15.00;69.40
33271;DHT22;53180;51.344;6.152;2023-06-14T04:12:56;15.00;69.10
33271;DHT22;53180;51.344;6.152;2023-06-14T04:15:24;15.10;68.80
33271;DHT22;53180;51.344;6.152;2023-06-14T04:17:54;15.20;68.20
33271;DHT22;53180;51.344;6.152;2023-06-14T04:20:24;15.30;68.10
33271;DHT22;53180;51.344;6.152;2023-06-14T04:22:53;15.30;67.40
33271;DHT22;53180;51.344;6.152;2023-06-14T04:25:23;15.50;67.00
33271;DHT22;53180;51.344;6.152;2023-06-14T04:27:57;15.50;67.10
33271;DHT22;53180;51.344;6.152;2023-06-14T04:30:25;15.70;66.80
33271;DHT22;53180;51.344;6.152;2023-06-14T04:32:58;15.80;66.70
33271;DHT22;53180;51.344;6.152;2023-06-14T04:35:27;16.00;66.40
33271;DHT22;53180;51.344;6.152;2023-06-14T04:37:55;16.30;65.10
33271;DHT22;53180;51.344;6.152;2023-06-14T04:40:25;16.50;64.40
33271;DHT22;53180;51.344;6.152;2023-06-14T04:42:54;16.70;64.10
33271;DHT22;53180;51.344;6.152;2023-06-14T04:45:24;16.80;63.30
33271;DHT22;53180;51.344;6.152;2023-06-14T04:47:59;17.10;62.80
33271;DHT22;53180;51.344;6.152;2023-06-14T04:50:27;17.30;62.30
33271;DHT22;53180;51.344;6.152;2023-06-14T04:52:56;17.50;61.70
33271;DHT22;53180;51.344;6.152;2023-06-14T04:55:27;17.70;61.30
33271;DHT22;53180;51.344;6.152;2023-06-14T04:57:56;17.80;60.30
33271;DHT22;53180;51.344;6.152;2023-06-14T05:00:25;17.80;60.30
33271;DHT22;53180;51.344;6.152;2023-06-14T05:02:53;18.10;59.50
33271;DHT22;53180;51.344;6.152;2023-06-14T05:05:22;18.20;59.20
33271;DHT22;53180;51.344;6.152;2023-06-14T05:07:51;18.30;58.90
33271;DHT22;53180;51.344;6.152;2023-06-14T05:10:19;18.40;58.50
33271;DHT22;53180;51.344;6.152;2023-06-14T05:12:51;18.30;58.60
33271;DHT22;53180;51.344;6.152;2023-06-14T05:15:21;18.40;58.30
33271;DHT22;53180;51.344;6.152;2023-06-14T05:17:53;18.40;58.20
33271;DHT22;53180;51.344;6.152;2023-06-14T05:20:23;18.40;58.20
33271;DHT22;53180;51.344;6.152;2023-06-14T05:22:53;18.40;57.40
33271;DHT22;53180;51.344;6.152;2023-06-14T05:25:23;18.50;57.30
33271;DHT22;53180;51.344;6.152;2023-06-14T05:27:53;18.50;57.10
33271;DHT22;53180;51.344;6.152;2023-06-14T05:30:21;18.60;56.30
33271;DHT22;53180;51.344;6.152;2023-06-14T05:32:50;18.60;56.70
33271;DHT22;53180;51.344;6.152;2023-06-14T05:35:19;18.70;56.70
33271;DHT22;53180;51.344;6.152;2023-06-14T05:37:50;18.70;56.40
33271;DHT22;53180;51.344;6.152;2023-06-14T05:40:18;18.80;55.80
33271;DHT22;53180;51.344;6.152;2023-06-14T05:42:47;18.80;55.20
33271;DHT22;53180;51.344;6.152;2023-06-14T05:45:16;18.80;55.40
33271;DHT22;53180;51.344;6.152;2023-06-14T05:47:45;18.90;55.00
33271;DHT22;53180;51.344;6.152;2023-06-14T05:50:13;19.00;53.90
33271;DHT22;53180;51.344;6.152;2023-06-14T05:52:41;19.00;53.60
33271;DHT22;53180;51.344;6.152;2023-06-14T05:55:10;19.10;54.30
33271;DHT22;53180;51.344;6.152;2023-06-14T05:57:40;19.20;53.90
33271;DHT22;53180;51.344;6.152;2023-06-14T06:00:09;19.30;53.70
33271;DHT22;53180;51.344;6.152;2023-06-14T06:02:42;19.30;52.40
33271;DHT22;53180;51.344;6.152;2023-06-14T06:05:11;19.30;53.40
33271;DHT22;53180;51.344;6.152;2023-06-14T06:07:40;19.40;53.40
33271;DHT22;53180;51.344;6.152;2023-06-14T06:10:09;19.50;52.40
33271;DHT22;53180;51.344;6.152;2023-06-14T06:12:38;19.50;52.80
33271;DHT22;53180;51.344;6.152;2023-06-14T06:15:07;19.60;53.30
33271;DHT22;53180;51.344;6.152;2023-06-14T06:17:39;19.70;53.50
33271;DHT22;53180;51.344;6.152;2023-06-14T06:20:23;19.80;52.10
33271;DHT22;53180;51.344;6.152;2023-06-14T06:22:56;19.90;52.20
33271;DHT22;53180;51.344;6.152;2023-06-14T06:25:25;20.00;51.80
33271;DHT22;53180;51.344;6.152;2023-06-14T06:27:55;20.10;52.00
33271;DHT22;53180;51.344;6.152;2023-06-14T06:30:24;20.20;51.10
33271;DHT22;53180;51.344;6.152;2023-06-14T06:32:53;20.20;51.50
33271;DHT22;53180;51.344;6.152;2023-06-14T06:35:24;20.30;52.40
33271;DHT22;53180;51.344;6.152;2023-06-14T06:37:52;20.40;51.60
33271;DHT22;53180;51.344;6.152;2023-06-14T06:40:21;20.50;51.50
33271;DHT22;53180;51.344;6.152;2023-06-14T06:42:49;20.60;51.00
33271;DHT22;53180;51.344;6.152;2023-06-14T06:45:17;20.70;50.80
33271;DHT22;53180;51.344;6.152;2023-06-14T06:47:47;20.80;50.20
33271;DHT22;53180;51.344;6.152;2023-06-14T06:50:19;20.80;50.30
33271;DHT22;53180;51.344;6.152;2023-06-14T06:52:51;21.00;49.90
33271;DHT22;53180;51.344;6.152;2023-06-14T06:55:19;21.10;50.60
33271;DHT22;53180;51.344;6.152;2023-06-14T06:57:48;21.30;50.40
33271;DHT22;53180;51.344;6.152;2023-06-14T07:00:20;21.30;47.70
33271;DHT22;53180;51.344;6.152;2023-06-14T07:02:48;21.30;48.80
33271;DHT22;53180;51.344;6.152;2023-06-14T07:05:18;21.40;48.90
33271;DHT22;53180;51.344;6.152;2023-06-14T07:07:46;21.50;48.00
33271;DHT22;53180;51.344;6.152;2023-06-14T07:10:16;21.70;48.10
33271;DHT22;53180;51.344;6.152;2023-06-14T07:12:47;21.70;47.60
33271;DHT22;53180;51.344;6.152;2023-06-14T07:15:15;21.80;47.30
33271;DHT22;53180;51.344;6.152;2023-06-14T07:17:44;21.90;46.50
33271;DHT22;53180;51.344;6.152;2023-06-14T07:20:13;21.90;46.50
33271;DHT22;53180;51.344;6.152;2023-06-14T07:22:43;21.90;45.80
33271;DHT22;53180;51.344;6.152;2023-06-14T07:25:12;22.00;46.20
33271;DHT22;53180;51.344;6.152;2023-06-14T07:27:46;22.20;46.80
33271;DHT22;53180;51.344;6.152;2023-06-14T07:30:15;22.40;44.60
33271;DHT22;53180;51.344;6.152;2023-06-14T07:32:43;22.40;46.00
33271;DHT22;53180;51.344;6.152;2023-06-14T07:35:12;22.50;45.60
33271;DHT22;53180;51.344;6.152;2023-06-14T07:37:43;22.60;44.90
33271;DHT22;53180;51.344;6.152;2023-06-14T07:40:13;22.70;45.20
33271;DHT22;53180;51.344;6.152;2023-06-14T07:42:41;22.90;43.20
33271;DHT22;53180;51.344;6.152;2023-06-14T07:45:13;23.10;42.50
33271;DHT22;53180;51.344;6.152;2023-06-14T07:47:43;23.20;42.20
33271;DHT22;53180;51.344;6.152;2023-06-14T07:50:12;23.30;42.30
33271;DHT22;53180;51.344;6.152;2023-06-14T07:52:41;23.40;42.70
33271;DHT22;53180;51.344;6.152;2023-06-14T07:55:09;23.50;42.90
33271;DHT22;53180;51.344;6.152;2023-06-14T07:57:37;23.50;42.10
33271;DHT22;53180;51.344;6.152;2023-06-14T08:00:07;23.70;42.10
33271;DHT22;53180;51.344;6.152;2023-06-14T08:02:38;23.60;40.70
33271;DHT22;53180;51.344;6.152;2023-06-14T08:05:08;23.60;41.50
33271;DHT22;53180;51.344;6.152;2023-06-14T08:07:37;23.80;42.10
33271;DHT22;53180;51.344;6.152;2023-06-14T08:10:07;24.00;41.30
33271;DHT22;53180;51.344;6.152;2023-06-14T08:12:37;24.00;40.00
33271;DHT22;53180;51.344;6.152;2023-06-14T08:15:06;24.10;40.30
33271;DHT22;53180;51.344;6.152;2023-06-14T08:17:42;24.20;39.50
33271;DHT22;53180;51.344;6.152;2023-06-14T08:20:11;24.30;39.00
33271;DHT22;53180;51.344;6.152;2023-06-14T08:22:40;24.30;38.00
33271;DHT22;53180;51.344;6.152;2023-06-14T08:25:09;24.50;38.50
33271;DHT22;53180;51.344;6.152;2023-06-14T08:27:39;24.50;37.60
33271;DHT22;53180;51.344;6.152;2023-06-14T08:30:09;24.50;37.90
33271;DHT22;53180;51.344;6.152;2023-06-14T08:32:38;24.50;37.10
33271;DHT22;53180;51.344;6.152;2023-06-14T08:35:08;24.60;36.90
33271;DHT22;53180;51.344;6.152;2023-06-14T08:37:38;24.60;36.60
33271;DHT22;53180;51.344;6.152;2023-06-14T08:40:17;24.80;36.60
33271;DHT22;53180;51.344;6.152;2023-06-14T08:42:50;24.90;35.80
33271;DHT22;53180;51.344;6.152;2023-06-14T08:45:19;24.80;35.60
33271;DHT22;53180;51.344;6.152;2023-06-14T08:47:53;24.90;35.40
33271;DHT22;53180;51.344;6.152;2023-06-14T08:50:27;25.00;35.10
33271;DHT22;53180;51.344;6.152;2023-06-14T08:53:01;25.10;35.60
33271;DHT22;53180;51.344;6.152;2023-06-14T08:55:31;25.20;36.10
33271;DHT22;53180;51.344;6.152;2023-06-14T08:58:04;25.40;35.70
33271;DHT22;53180;51.344;6.152;2023-06-14T09:00:33;25.40;33.20
33271;DHT22;53180;51.344;6.152;2023-06-14T09:03:01;25.30;33.40
33271;DHT22;53180;51.344;6.152;2023-06-14T09:05:32;25.40;34.70
33271;DHT22;53180;51.344;6.152;2023-06-14T09:08:00;25.30;32.80
33271;DHT22;53180;51.344;6.152;2023-06-14T09:10:33;25.30;34.20
33271;DHT22;53180;51.344;6.152;2023-06-14T09:13:04;25.50;33.60
33271;DHT22;53180;51.344;6.152;2023-06-14T09:15:35;25.30;33.40
33271;DHT22;53180;51.344;6.152;2023-06-14T09:18:04;25.50;33.70
33271;DHT22;53180;51.344;6.152;2023-06-14T09:20:35;25.50;32.70
33271;DHT22;53180;51.344;6.152;2023-06-14T09:23:04;25.50;33.50
33271;DHT22;53180;51.344;6.152;2023-06-14T09:25:42;25.60;33.60
33271;DHT22;53180;51.344;6.152;2023-06-14T09:28:12;25.70;33.70
33271;DHT22;53180;51.344;6.152;2023-06-14T09:30:40;25.80;33.90
33271;DHT22;53180;51.344;6.152;2023-06-14T09:33:08;25.80;34.30
33271;DHT22;53180;51.344;6.152;2023-06-14T09:35:39;26.00;33.10
33271;DHT22;53180;51.344;6.152;2023-06-14T09:38:07;26.00;33.60
33271;DHT22;53180;51.344;6.152;2023-06-14T09:40:36;25.80;33.10
33271;DHT22;53180;51.344;6.152;2023-06-14T09:43:06;25.80;32.60
33271;DHT22;53180;51.344;6.152;2023-06-14T09:45:38;25.90;32.20
33271;DHT22;53180;51.344;6.152;2023-06-14T09:48:08;26.10;33.00
33271;DHT22;53180;51.344;6.152;2023-06-14T09:50:38;26.20;32.80
33271;DHT22;53180;51.344;6.152;2023-06-14T09:53:09;26.20;34.00
33271;DHT22;53180;51.344;6.152;2023-06-14T09:55:41;26.20;32.50
33271;DHT22;53180;51.344;6.152;2023-06-14T09:58:10;26.30;33.10
33271;DHT22;53180;51.344;6.152;2023-06-14T10:00:42;26.40;33.80
33271;DHT22;53180;51.344;6.152;2023-06-14T10:03:21;26.50;34.20
33271;DHT22;53180;51.344;6.152;2023-06-14T10:05:55;26.60;34.60
33271;DHT22;53180;51.344;6.152;2023-06-14T10:08:28;26.70;31.50
33271;DHT22;53180;51.344;6.152;2023-06-14T10:11:00;26.80;32.40
33271;DHT22;53180;51.344;6.152;2023-06-14T10:13:29;26.80;32.10
33271;DHT22;53180;51.344;6.152;2023-06-14T10:16:07;26.50;33.30
33271;DHT22;53180;51.344;6.152;2023-06-14T10:18:45;26.40;33.90
33271;DHT22;53180;51.344;6.152;2023-06-14T10:21:22;26.60;34.00
33271;DHT22;53180;51.344;6.152;2023-06-14T10:23:56;26.70;33.40
33271;DHT22;53180;51.344;6.152;2023-06-14T10:26:29;26.70;31.80
33271;DHT22;53180;51.344;6.152;2023-06-14T10:29:00;26.40;33.40
33271;DHT22;53180;51.344;6.152;2023-06-14T10:31:42;26.60;33.90
33271;DHT22;53180;51.344;6.152;2023-06-14T10:34:12;26.80;33.60
33271;DHT22;53180;51.344;6.152;2023-06-14T10:36:43;27.00;33.90
33271;DHT22;53180;51.344;6.152;2023-06-14T10:39:16;27.10;33.40
33271;DHT22;53180;51.344;6.152;2023-06-14T10:41:53;27.20;33.50
33271;DHT22;53180;51.344;6.152;2023-06-14T10:44:49;27.30;32.70
33271;DHT22;53180;51.344;6.152;2023-06-14T10:47:26;27.30;33.50
33271;DHT22;53180;51.344;6.152;2023-06-14T10:49:57;27.30;33.40
33271;DHT22;53180;51.344;6.152;2023-06-14T10:52:33;27.30;33.90
33271;DHT22;53180;51.344;6.152;2023-06-14T10:55:05;27.20;34.70
33271;DHT22;53180;51.344;6.152;2023-06-14T10:57:37;27.00;32.20
33271;DHT22;53180;51.344;6.152;2023-06-14T11:00:18;27.10;33.70
33271;DHT22;53180;51.344;6.152;2023-06-14T11:03:28;27.30;33.50
33271;DHT22;53180;51.344;6.152;2023-06-14T11:06:13;27.20;32.30
33271;DHT22;53180;51.344;6.152;2023-06-14T11:12:13;27.20;32.70
33271;DHT22;53180;51.344;6.152;2023-06-14T11:14:45;27.00;33.10
33271;DHT22;53180;51.344;6.152;2023-06-14T11:17:15;27.00;32.90
33271;DHT22;53180;51.344;6.152;2023-06-14T11:19:44;27.10;33.40
33271;DHT22;53180;51.344;6.152;2023-06-14T11:22:12;27.10;32.50
33271;DHT22;53180;51.344;6.152;2023-06-14T11:24:44;27.30;32.60
33271;DHT22;53180;51.344;6.152;2023-06-14T11:27:13;27.50;32.20
33271;DHT22;53180;51.344;6.152;2023-06-14T11:29:48;27.50;32.20
33271;DHT22;53180;51.344;6.152;2023-06-14T11:32:16;27.50;32.00
33271;DHT22;53180;51.344;6.152;2023-06-14T11:34:46;27.60;32.40
33271;DHT22;53180;51.344;6.152;2023-06-14T11:37:14;27.60;32.10
33271;DHT22;53180;51.344;6.152;2023-06-14T11:39:45;27.50;32.20
33271;DHT22;53180;51.344;6.152;2023-06-14T11:42:14;27.50;32.80
33271;DHT22;53180;51.344;6.152;2023-06-14T11:44:45;27.60;31.80
33271;DHT22;53180;51.344;6.152;2023-06-14T11:47:14;27.60;32.10
33271;DHT22;53180;51.344;6.152;2023-06-14T11:49:42;27.40;31.60
33271;DHT22;53180;51.344;6.152;2023-06-14T11:52:11;27.20;32.60
33271;DHT22;53180;51.344;6.152;2023-06-14T11:54:40;27.20;32.70
33271;DHT22;53180;51.344;6.152;2023-06-14T11:57:10;27.20;32.10
33271;DHT22;53180;51.344;6.152;2023-06-14T11:59:39;27.30;32.00
33271;DHT22;53180;51.344;6.152;2023-06-14T12:02:08;27.30;31.30
33271;DHT22;53180;51.344;6.152;2023-06-14T12:04:37;27.30;32.00
33271;DHT22;53180;51.344;6.152;2023-06-14T12:07:09;27.30;32.80
33271;DHT22;53180;51.344;6.152;2023-06-14T12:09:39;27.30;32.30
33271;DHT22;53180;51.344;6.152;2023-06-14T12:12:20;27.30;31.10
33271;DHT22;53180;51.344;6.152;2023-06-14T12:14:49;27.20;31.80
33271;DHT22;53180;51.344;6.152;2023-06-14T12:17:18;27.20;32.70
33271;DHT22;53180;51.344;6.152;2023-06-14T12:19:48;27.30;32.10
33271;DHT22;53180;51.344;6.152;2023-06-14T12:22:17;27.30;32.40
33271;DHT22;53180;51.344;6.152;2023-06-14T12:24:46;27.00;33.40
33271;DHT22;53180;51.344;6.152;2023-06-14T12:27:15;27.10;33.00
33271;DHT22;53180;51.344;6.152;2023-06-14T12:29:47;27.20;32.30
33271;DHT22;53180;51.344;6.152;2023-06-14T12:32:27;27.30;31.50
33271;DHT22;53180;51.344;6.152;2023-06-14T12:34:57;27.30;31.80
33271;DHT22;53180;51.344;6.152;2023-06-14T12:37:25;27.20;30.90
33271;DHT22;53180;51.344;6.152;2023-06-14T12:39:54;27.30;32.00
33271;DHT22;53180;51.344;6.152;2023-06-14T12:42:22;27.30;32.10
33271;DHT22;53180;51.344;6.152;2023-06-14T12:44:52;27.10;32.80
33271;DHT22;53180;51.344;6.152;2023-06-14T12:47:20;27.20;31.80
33271;DHT22;53180;51.344;6.152;2023-06-14T12:49:49;27.30;32.30
33271;DHT22;53180;51.344;6.152;2023-06-14T12:52:17;27.30;32.60
33271;DHT22;53180;51.344;6.152;2023-06-14T12:54:45;27.50;31.90
33271;DHT22;53180;51.344;6.152;2023-06-14T12:57:14;27.60;30.80
33271;DHT22;53180;51.344;6.152;2023-06-14T12:59:42;27.30;30.10
33271;DHT22;53180;51.344;6.152;2023-06-14T13:02:13;27.20;30.00
33271;DHT22;53180;51.344;6.152;2023-06-14T13:04:43;27.20;30.80
33271;DHT22;53180;51.344;6.152;2023-06-14T13:07:12;27.30;30.90
33271;DHT22;53180;51.344;6.152;2023-06-14T13:09:41;27.30;31.20
33271;DHT22;53180;51.344;6.152;2023-06-14T13:12:10;27.30;30.30
33271;DHT22;53180;51.344;6.152;2023-06-14T13:14:39;27.30;30.50
33271;DHT22;53180;51.344;6.152;2023-06-14T13:17:09;27.30;30.80
33271;DHT22;53180;51.344;6.152;2023-06-14T13:19:38;27.30;31.30
33271;DHT22;53180;51.344;6.152;2023-06-14T13:22:09;27.50;30.80
33271;DHT22;53180;51.344;6.152;2023-06-14T13:24:37;27.50;31.20
33271;DHT22;53180;51.344;6.152;2023-06-14T13:27:07;27.50;30.90
33271;DHT22;53180;51.344;6.152;2023-06-14T13:29:35;27.30;31.70
33271;DHT22;53180;51.344;6.152;2023-06-14T13:32:04;27.30;31.40
33271;DHT22;53180;51.344;6.152;2023-06-14T13:34:34;27.30;30.80
33271;DHT22;53180;51.344;6.152;2023-06-14T13:37:04;27.00;31.00
33271;DHT22;53180;51.344;6.152;2023-06-14T13:39:33;27.10;32.00
33271;DHT22;53180;51.344;6.152;2023-06-14T13:42:04;27.20;32.40
33271;DHT22;53180;51.344;6.152;2023-06-14T13:44:33;27.30;31.20
33271;DHT22;53180;51.344;6.152;2023-06-14T13:47:01;27.20;31.30
33271;DHT22;53180;51.344;6.152;2023-06-14T13:49:29;27.10;32.50
33271;DHT22;53180;51.344;6.152;2023-06-14T13:52:01;27.10;32.80
33271;DHT22;53180;51.344;6.152;2023-06-14T13:54:30;27.00;31.10
33271;DHT22;53180;51.344;6.152;2023-06-14T13:56:59;27.00;31.80
33271;DHT22;53180;51.344;6.152;2023-06-14T13:59:27;27.00;32.60
33271;DHT22;53180;51.344;6.152;2023-06-14T14:01:56;27.00;32.10
33271;DHT22;53180;51.344;6.152;2023-06-14T14:04:24;27.10;32.70
33271;DHT22;53180;51.344;6.152;2023-06-14T14:06:53;27.00;32.30
33271;DHT22;53180;51.344;6.152;2023-06-14T14:09:21;27.10;32.30
33271;DHT22;53180;51.344;6.152;2023-06-14T14:11:51;27.20;32.70
33271;DHT22;53180;51.344;6.152;2023-06-14T14:14:19;27.10;31.60
33271;DHT22;53180;51.344;6.152;2023-06-14T14:16:47;27.20;32.30
33271;DHT22;53180;51.344;6.152;2023-06-14T14:19:16;27.30;32.00
33271;DHT22;53180;51.344;6.152;2023-06-14T14:21:45;27.30;31.90
33271;DHT22;53180;51.344;6.152;2023-06-14T14:24:13;27.30;32.80
33271;DHT22;53180;51.344;6.152;2023-06-14T14:26:42;27.10;32.90
33271;DHT22;53180;51.344;6.152;2023-06-14T14:29:20;27.10;33.40
33271;DHT22;53180;51.344;6.152;2023-06-14T14:31:53;27.20;33.60
33271;DHT22;53180;51.344;6.152;2023-06-14T14:34:21;27.30;33.20
33271;DHT22;53180;51.344;6.152;2023-06-14T14:36:50;27.30;33.20
33271;DHT22;53180;51.344;6.152;2023-06-14T14:39:18;27.10;33.20
33271;DHT22;53180;51.344;6.152;2023-06-14T14:41:47;27.10;32.60
33271;DHT22;53180;51.344;6.152;2023-06-14T14:44:15;27.20;32.70
33271;DHT22;53180;51.344;6.152;2023-06-14T14:46:46;27.20;32.60
33271;DHT22;53180;51.344;6.152;2023-06-14T14:49:15;27.20;33.30
33271;DHT22;53180;51.344;6.152;2023-06-14T14:51:43;27.20;33.10
33271;DHT22;53180;51.344;6.152;2023-06-14T14:54:12;27.20;32.80
33271;DHT22;53180;51.344;6.152;2023-06-14T14:56:40;27.10;33.00
33271;DHT22;53180;51.344;6.152;2023-06-14T14:59:08;27.10;32.90
33271;DHT22;53180;51.344;6.152;2023-06-14T15:01:37;26.90;33.50
33271;DHT22;53180;51.344;6.152;2023-06-14T15:04:06;27.00;34.00
33271;DHT22;53180;51.344;6.152;2023-06-14T15:06:35;27.00;33.60
33271;DHT22;53180;51.344;6.152;2023-06-14T15:09:06;27.00;33.80
33271;DHT22;53180;51.344;6.152;2023-06-14T15:11:34;27.00;34.30
33271;DHT22;53180;51.344;6.152;2023-06-14T15:14:03;26.90;33.80
33271;DHT22;53180;51.344;6.152;2023-06-14T15:16:31;26.80;34.10
33271;DHT22;53180;51.344;6.152;2023-06-14T15:19:00;26.70;34.60
33271;DHT22;53180;51.344;6.152;2023-06-14T15:21:30;26.70;35.10
33271;DHT22;53180;51.344;6.152;2023-06-14T15:23:58;26.60;34.70
33271;DHT22;53180;51.344;6.152;2023-06-14T15:26:27;26.60;36.10
33271;DHT22;53180;51.344;6.152;2023-06-14T15:28:56;26.60;35.90
33271;DHT22;53180;51.344;6.152;2023-06-14T15:31:24;26.50;35.10
33271;DHT22;53180;51.344;6.152;2023-06-14T15:33:54;26.50;35.60
33271;DHT22;53180;51.344;6.152;2023-06-14T15:36:24;26.50;35.30
33271;DHT22;53180;51.344;6.152;2023-06-14T15:38:54;26.30;35.20
33271;DHT22;53180;51.344;6.152;2023-06-14T15:41:22;26.20;35.70
33271;DHT22;53180;51.344;6.152;2023-06-14T15:43:51;26.20;35.80
33271;DHT22;53180;51.344;6.152;2023-06-14T15:46:21;26.20;36.20
33271;DHT22;53180;51.344;6.152;2023-06-14T15:48:49;26.30;36.30
33271;DHT22;53180;51.344;6.152;2023-06-14T15:51:18;26.30;36.40